This is the latest recevied weather packets stored in our database for station/object N4OGP-WX. If no packets are shown the sender has not sent any weather packets the latest 10 day(s).
| Time | Temp. | Humidity | Pressure | Rain* | Wind** | Luminosity | Snow |
|---|---|---|---|---|---|---|---|
| 1778222338 | 20° C | 90% | 1011 hPa | 0 mm | - | - | - |
| 1778222248 | 20° C | 90% | 1010.9 hPa | 0 mm | - | - | - |
| 1778222188 | 23.89° C | 42% | 1020.4 hPa | 0 mm | - | - | - |
| 1778222128 | 20° C | 90% | 1011 hPa | 0 mm | - | - | - |
| 1778222038 | 20° C | 90% | 1011.2 hPa | 0 mm | - | - | - |
| 1778221978 | 20° C | 89% | 1011.3 hPa | 0 mm | - | - | - |
| 1778221888 | 20° C | 89% | 1011.4 hPa | 0 mm | - | - | - |
| 1778221828 | 20° C | 89% | 1011.4 hPa | 0 mm | - | - | - |
| 1778221768 | 20° C | 89% | 1011.4 hPa | 0 mm | - | - | - |
| 1778221708 | 23.89° C | 42% | 1020.4 hPa | 0 mm | - | - | - |
| 1778221618 | 20° C | 89% | 1011.5 hPa | 0 mm | - | - | - |
| 1778221558 | 23.89° C | 42% | 1020.4 hPa | 0 mm | - | - | - |
| 1778221498 | 20° C | 89% | 1011.6 hPa | 0 mm | - | - | - |
| 1778221408 | 23.89° C | 42% | 1020.4 hPa | 0 mm | - | - | - |
| 1778221348 | 20° C | 89% | 1011.7 hPa | 0 mm | - | - | - |
| 1778221288 | 20° C | 89% | 1011.7 hPa | 0 mm | - | - | - |
| 1778221228 | 20° C | 89% | 1011.7 hPa | 0 mm | - | - | - |
| 1778221168 | 20° C | 89% | 1011.7 hPa | 0 mm | - | - | - |
| 1778221078 | 23.89° C | 42% | 1020.4 hPa | 0 mm | - | - | - |
| 1778221018 | 20° C | 89% | 1011.8 hPa | 0 mm | - | - | - |
| 1778220928 | 20° C | 89% | 1011.8 hPa | 0 mm | - | - | - |
| 1778220868 | 20° C | 89% | 1011.8 hPa | 0 mm | - | - | - |
| 1778220778 | 23.89° C | 42% | 1020.4 hPa | 0 mm | - | - | - |
| 1778220688 | 20° C | 89% | 1011.6 hPa | 0 mm | - | - | - |
| 1778220598 | 20° C | 89% | 1011.6 hPa | 0 mm | - | - | - |
* Rain latest hour (hover to see other rain measurements)
** Current wind speed in m/s (hover to see current wind gust speed)